Terminal Aerodrome Forecast
Issued by NWS

Home | Current Version | Previous Version | Text Only | Print | Product List | Glossary On
Versions: 1 2 3 4 5 6 7 8 9 10 11 12 13
000
FTPQ31 PGUM 121720
TAFGUM
TAF

TAF
PKMJ 121720Z 1218/1318 10012KT P6SM VCTS SCT012CB BKN045 OVC110
      TEMPO 1218/1222 09012G23KT 2SM +SHRA SCT012 BKN025 OVC050
     FM122300 09015KT P6SM VCSH SCT014 SCT050 BKN110
      TEMPO 1223/1303 3SM SHRA SCT012 BKN030 OVC050=

USA.gov is the U.S. government's official web portal to all federal, state and local government web resources and services.